sensor_id;sensor_type;location;lat;lon;timestamp;P1;durP1;ratioP1;P2;durP2;ratioP2
41115;SDS011;26861;51.824;4.682;2022-12-15T00:02:41;4.97;;;2.83;;
41115;SDS011;26861;51.824;4.682;2022-12-15T00:05:25;3.25;;;2.70;;
41115;SDS011;26861;51.824;4.682;2022-12-15T00:08:09;5.13;;;3.67;;
41115;SDS011;26861;51.824;4.682;2022-12-15T00:10:54;4.97;;;3.05;;
41115;SDS011;26861;51.824;4.682;2022-12-15T00:13:38;4.43;;;3.00;;
41115;SDS011;26861;51.824;4.682;2022-12-15T00:16:23;4.53;;;3.17;;
41115;SDS011;26861;51.824;4.682;2022-12-15T00:19:07;5.95;;;3.58;;
41115;SDS011;26861;51.824;4.682;2022-12-15T00:21:52;4.82;;;3.03;;
41115;SDS011;26861;51.824;4.682;2022-12-15T00:24:36;4.32;;;2.92;;
41115;SDS011;26861;51.824;4.682;2022-12-15T00:27:20;3.25;;;2.80;;
41115;SDS011;26861;51.824;4.682;2022-12-15T00:30:05;4.28;;;2.65;;
41115;SDS011;26861;51.824;4.682;2022-12-15T00:32:49;5.57;;;3.30;;
41115;SDS011;26861;51.824;4.682;2022-12-15T00:35:34;4.13;;;3.03;;
41115;SDS011;26861;51.824;4.682;2022-12-15T00:38:19;4.28;;;3.20;;
41115;SDS011;26861;51.824;4.682;2022-12-15T00:41:03;4.15;;;2.97;;
41115;SDS011;26861;51.824;4.682;2022-12-15T00:43:30;4.03;;;2.63;;
41115;SDS011;26861;51.824;4.682;2022-12-15T00:45:57;4.40;;;3.00;;
41115;SDS011;26861;51.824;4.682;2022-12-15T00:48:42;5.20;;;3.03;;
41115;SDS011;26861;51.824;4.682;2022-12-15T00:51:08;3.55;;;2.65;;
41115;SDS011;26861;51.824;4.682;2022-12-15T00:53:34;5.07;;;3.00;;
41115;SDS011;26861;51.824;4.682;2022-12-15T00:56:19;4.32;;;2.90;;
41115;SDS011;26861;51.824;4.682;2022-12-15T00:59:03;4.07;;;2.97;;
41115;SDS011;26861;51.824;4.682;2022-12-15T01:01:47;3.38;;;2.83;;
41115;SDS011;26861;51.824;4.682;2022-12-15T01:04:31;4.70;;;3.50;;
41115;SDS011;26861;51.824;4.682;2022-12-15T01:07:15;2.95;;;2.65;;
41115;SDS011;26861;51.824;4.682;2022-12-15T01:09:59;3.08;;;2.78;;
41115;SDS011;26861;51.824;4.682;2022-12-15T01:12:44;4.90;;;2.95;;
41115;SDS011;26861;51.824;4.682;2022-12-15T01:15:28;2.90;;;2.60;;
41115;SDS011;26861;51.824;4.682;2022-12-15T01:18:13;3.72;;;2.92;;
41115;SDS011;26861;51.824;4.682;2022-12-15T01:20:58;4.38;;;3.20;;
41115;SDS011;26861;51.824;4.682;2022-12-15T01:23:25;3.50;;;2.70;;
41115;SDS011;26861;51.824;4.682;2022-12-15T01:25:51;4.13;;;2.70;;
41115;SDS011;26861;51.824;4.682;2022-12-15T01:28:18;4.25;;;2.90;;
41115;SDS011;26861;51.824;4.682;2022-12-15T01:30:44;5.50;;;3.38;;
41115;SDS011;26861;51.824;4.682;2022-12-15T01:33:10;4.10;;;3.17;;
41115;SDS011;26861;51.824;4.682;2022-12-15T01:35:37;4.80;;;3.00;;
41115;SDS011;26861;51.824;4.682;2022-12-15T01:38:02;3.22;;;2.80;;
41115;SDS011;26861;51.824;4.682;2022-12-15T01:40:28;3.22;;;2.88;;
41115;SDS011;26861;51.824;4.682;2022-12-15T01:43:13;3.03;;;2.72;;
41115;SDS011;26861;51.824;4.682;2022-12-15T01:45:46;4.05;;;2.97;;
41115;SDS011;26861;51.824;4.682;2022-12-15T01:48:25;4.40;;;2.95;;
41115;SDS011;26861;51.824;4.682;2022-12-15T01:51:06;4.43;;;3.13;;
41115;SDS011;26861;51.824;4.682;2022-12-15T01:53:42;4.45;;;2.88;;
41115;SDS011;26861;51.824;4.682;2022-12-15T01:56:16;4.07;;;2.97;;
41115;SDS011;26861;51.824;4.682;2022-12-15T01:58:42;4.22;;;2.95;;
41115;SDS011;26861;51.824;4.682;2022-12-15T02:01:12;3.13;;;2.80;;
41115;SDS011;26861;51.824;4.682;2022-12-15T02:03:38;4.60;;;2.80;;
41115;SDS011;26861;51.824;4.682;2022-12-15T02:06:05;6.13;;;3.10;;
41115;SDS011;26861;51.824;4.682;2022-12-15T02:08:32;3.53;;;2.88;;
41115;SDS011;26861;51.824;4.682;2022-12-15T02:11:10;4.88;;;2.78;;
41115;SDS011;26861;51.824;4.682;2022-12-15T02:14:04;4.03;;;2.90;;
41115;SDS011;26861;51.824;4.682;2022-12-15T02:30:24;4.32;;;2.70;;
41115;SDS011;26861;51.824;4.682;2022-12-15T02:36:53;3.88;;;2.95;;
41115;SDS011;26861;51.824;4.682;2022-12-15T02:38:50;4.72;;;2.95;;
41115;SDS011;26861;51.824;4.682;2022-12-15T02:41:32;3.75;;;2.80;;
41115;SDS011;26861;51.824;4.682;2022-12-15T02:47:20;3.20;;;2.90;;
41115;SDS011;26861;51.824;4.682;2022-12-15T03:03:58;4.60;;;3.30;;
41115;SDS011;26861;51.824;4.682;2022-12-15T03:06:25;4.57;;;2.88;;
41115;SDS011;26861;51.824;4.682;2022-12-15T03:08:52;3.85;;;2.85;;
41115;SDS011;26861;51.824;4.682;2022-12-15T03:11:17;4.22;;;2.58;;
41115;SDS011;26861;51.824;4.682;2022-12-15T03:13:43;3.15;;;2.22;;
41115;SDS011;26861;51.824;4.682;2022-12-15T03:16:09;4.55;;;3.00;;
41115;SDS011;26861;51.824;4.682;2022-12-15T03:18:34;3.33;;;2.78;;
41115;SDS011;26861;51.824;4.682;2022-12-15T03:21:00;3.58;;;2.60;;
41115;SDS011;26861;51.824;4.682;2022-12-15T03:23:25;3.97;;;2.88;;
41115;SDS011;26861;51.824;4.682;2022-12-15T03:25:51;4.05;;;3.13;;
41115;SDS011;26861;51.824;4.682;2022-12-15T03:28:16;4.10;;;3.03;;
41115;SDS011;26861;51.824;4.682;2022-12-15T03:30:42;4.43;;;3.13;;
41115;SDS011;26861;51.824;4.682;2022-12-15T03:33:08;4.03;;;2.60;;
41115;SDS011;26861;51.824;4.682;2022-12-15T03:35:34;3.90;;;2.85;;
41115;SDS011;26861;51.824;4.682;2022-12-15T03:38:00;4.13;;;2.70;;
41115;SDS011;26861;51.824;4.682;2022-12-15T03:40:26;3.55;;;2.60;;
41115;SDS011;26861;51.824;4.682;2022-12-15T03:42:51;3.28;;;2.42;;
41115;SDS011;26861;51.824;4.682;2022-12-15T03:45:18;4.43;;;2.92;;
41115;SDS011;26861;51.824;4.682;2022-12-15T03:47:46;3.72;;;2.95;;
41115;SDS011;26861;51.824;4.682;2022-12-15T03:50:14;8.63;;;3.50;;
41115;SDS011;26861;51.824;4.682;2022-12-15T03:52:41;3.13;;;2.60;;
41115;SDS011;26861;51.824;4.682;2022-12-15T03:55:07;4.38;;;3.15;;
41115;SDS011;26861;51.824;4.682;2022-12-15T03:57:33;3.58;;;2.60;;
41115;SDS011;26861;51.824;4.682;2022-12-15T03:59:59;4.00;;;2.88;;
41115;SDS011;26861;51.824;4.682;2022-12-15T04:02:24;3.45;;;2.63;;
41115;SDS011;26861;51.824;4.682;2022-12-15T04:04:50;3.15;;;2.85;;
41115;SDS011;26861;51.824;4.682;2022-12-15T04:07:15;6.05;;;3.05;;
41115;SDS011;26861;51.824;4.682;2022-12-15T04:09:41;2.83;;;2.53;;
41115;SDS011;26861;51.824;4.682;2022-12-15T04:12:08;3.10;;;2.80;;
41115;SDS011;26861;51.824;4.682;2022-12-15T04:14:35;3.40;;;2.70;;
41115;SDS011;26861;51.824;4.682;2022-12-15T04:17:06;3.55;;;2.80;;
41115;SDS011;26861;51.824;4.682;2022-12-15T04:19:35;3.40;;;2.58;;
41115;SDS011;26861;51.824;4.682;2022-12-15T04:22:19;4.20;;;2.78;;
41115;SDS011;26861;51.824;4.682;2022-12-15T04:24:45;4.07;;;2.53;;
41115;SDS011;26861;51.824;4.682;2022-12-15T04:27:29;3.92;;;2.90;;
41115;SDS011;26861;51.824;4.682;2022-12-15T04:30:13;4.10;;;2.67;;
41115;SDS011;26861;51.824;4.682;2022-12-15T04:32:57;3.22;;;2.60;;
41115;SDS011;26861;51.824;4.682;2022-12-15T04:35:42;3.40;;;2.70;;
41115;SDS011;26861;51.824;4.682;2022-12-15T04:38:26;3.50;;;2.38;;
41115;SDS011;26861;51.824;4.682;2022-12-15T04:41:10;3.40;;;2.47;;
41115;SDS011;26861;51.824;4.682;2022-12-15T04:43:56;2.70;;;2.40;;
41115;SDS011;26861;51.824;4.682;2022-12-15T04:46:40;4.68;;;2.72;;
41115;SDS011;26861;51.824;4.682;2022-12-15T04:49:24;6.82;;;2.90;;
41115;SDS011;26861;51.824;4.682;2022-12-15T04:52:08;3.47;;;2.60;;
41115;SDS011;26861;51.824;4.682;2022-12-15T04:54:52;2.70;;;2.33;;
41115;SDS011;26861;51.824;4.682;2022-12-15T04:57:37;3.28;;;2.33;;
41115;SDS011;26861;51.824;4.682;2022-12-15T05:00:21;3.40;;;2.33;;
41115;SDS011;26861;51.824;4.682;2022-12-15T05:03:06;4.10;;;2.60;;
41115;SDS011;26861;51.824;4.682;2022-12-15T05:05:50;5.63;;;2.58;;
41115;SDS011;26861;51.824;4.682;2022-12-15T05:08:35;3.90;;;2.97;;
41115;SDS011;26861;51.824;4.682;2022-12-15T05:11:19;3.00;;;2.63;;
41115;SDS011;26861;51.824;4.682;2022-12-15T05:14:03;4.00;;;2.78;;
41115;SDS011;26861;51.824;4.682;2022-12-15T05:16:47;3.53;;;2.92;;
41115;SDS011;26861;51.824;4.682;2022-12-15T05:19:32;4.07;;;3.33;;
41115;SDS011;26861;51.824;4.682;2022-12-15T05:22:16;3.97;;;3.13;;
41115;SDS011;26861;51.824;4.682;2022-12-15T05:25:00;4.63;;;3.33;;
41115;SDS011;26861;51.824;4.682;2022-12-15T05:27:44;4.72;;;3.10;;
41115;SDS011;26861;51.824;4.682;2022-12-15T05:30:28;4.68;;;3.42;;
41115;SDS011;26861;51.824;4.682;2022-12-15T05:33:12;5.47;;;3.22;;
41115;SDS011;26861;51.824;4.682;2022-12-15T05:35:39;4.25;;;2.95;;
41115;SDS011;26861;51.824;4.682;2022-12-15T05:38:04;3.58;;;2.97;;
41115;SDS011;26861;51.824;4.682;2022-12-15T05:40:30;4.63;;;3.28;;
41115;SDS011;26861;51.824;4.682;2022-12-15T05:42:59;4.28;;;3.20;;
41115;SDS011;26861;51.824;4.682;2022-12-15T05:45:25;3.58;;;2.85;;
41115;SDS011;26861;51.824;4.682;2022-12-15T05:47:52;4.93;;;3.00;;
41115;SDS011;26861;51.824;4.682;2022-12-15T05:50:18;4.00;;;3.42;;
41115;SDS011;26861;51.824;4.682;2022-12-15T05:52:45;5.80;;;3.85;;
41115;SDS011;26861;51.824;4.682;2022-12-15T05:55:10;4.30;;;3.83;;
41115;SDS011;26861;51.824;4.682;2022-12-15T05:57:36;7.00;;;5.38;;
41115;SDS011;26861;51.824;4.682;2022-12-15T06:00:03;6.70;;;5.13;;
41115;SDS011;26861;51.824;4.682;2022-12-15T06:02:29;7.70;;;6.07;;
41115;SDS011;26861;51.824;4.682;2022-12-15T06:04:55;7.07;;;6.35;;
41115;SDS011;26861;51.824;4.682;2022-12-15T06:07:21;9.15;;;7.97;;
41115;SDS011;26861;51.824;4.682;2022-12-15T06:09:46;9.77;;;7.30;;
41115;SDS011;26861;51.824;4.682;2022-12-15T06:12:12;9.50;;;8.60;;
41115;SDS011;26861;51.824;4.682;2022-12-15T06:14:38;10.07;;;9.07;;
41115;SDS011;26861;51.824;4.682;2022-12-15T06:17:03;10.55;;;9.30;;
41115;SDS011;26861;51.824;4.682;2022-12-15T06:19:29;11.05;;;9.80;;
41115;SDS011;26861;51.824;4.682;2022-12-15T06:21:55;10.48;;;9.43;;
41115;SDS011;26861;51.824;4.682;2022-12-15T06:24:20;12.18;;;10.52;;
41115;SDS011;26861;51.824;4.682;2022-12-15T06:26:46;17.63;;;9.95;;
41115;SDS011;26861;51.824;4.682;2022-12-15T06:29:12;11.70;;;9.63;;
41115;SDS011;26861;51.824;4.682;2022-12-15T06:31:38;12.05;;;9.90;;
41115;SDS011;26861;51.824;4.682;2022-12-15T06:34:05;10.70;;;9.60;;
41115;SDS011;26861;51.824;4.682;2022-12-15T06:36:33;12.13;;;9.82;;
41115;SDS011;26861;51.824;4.682;2022-12-15T06:38:59;14.60;;;9.15;;
41115;SDS011;26861;51.824;4.682;2022-12-15T06:41:27;11.00;;;8.52;;
41115;SDS011;26861;51.824;4.682;2022-12-15T06:43:54;13.13;;;8.77;;
41115;SDS011;26861;51.824;4.682;2022-12-15T06:46:20;12.45;;;8.60;;
41115;SDS011;26861;51.824;4.682;2022-12-15T06:48:47;10.75;;;8.15;;
41115;SDS011;26861;51.824;4.682;2022-12-15T06:51:13;9.60;;;8.20;;
41115;SDS011;26861;51.824;4.682;2022-12-15T06:53:40;9.10;;;8.20;;
41115;SDS011;26861;51.824;4.682;2022-12-15T06:56:16;11.43;;;7.50;;
41115;SDS011;26861;51.824;4.682;2022-12-15T06:58:45;8.27;;;7.45;;
41115;SDS011;26861;51.824;4.682;2022-12-15T07:01:12;8.30;;;7.40;;
41115;SDS011;26861;51.824;4.682;2022-12-15T07:03:39;9.32;;;6.90;;
41115;SDS011;26861;51.824;4.682;2022-12-15T07:06:06;9.05;;;7.00;;
41115;SDS011;26861;51.824;4.682;2022-12-15T07:08:33;9.60;;;7.05;;
41115;SDS011;26861;51.824;4.682;2022-12-15T07:11:01;10.18;;;6.57;;
41115;SDS011;26861;51.824;4.682;2022-12-15T07:13:27;6.85;;;6.10;;
41115;SDS011;26861;51.824;4.682;2022-12-15T07:15:53;9.13;;;6.60;;
41115;SDS011;26861;51.824;4.682;2022-12-15T07:18:18;8.15;;;6.05;;
41115;SDS011;26861;51.824;4.682;2022-12-15T07:20:44;9.23;;;6.60;;
41115;SDS011;26861;51.824;4.682;2022-12-15T07:23:10;8.07;;;6.47;;
41115;SDS011;26861;51.824;4.682;2022-12-15T07:25:36;9.13;;;6.30;;
41115;SDS011;26861;51.824;4.682;2022-12-15T07:28:02;7.18;;;5.80;;
41115;SDS011;26861;51.824;4.682;2022-12-15T07:30:28;8.20;;;6.35;;
41115;SDS011;26861;51.824;4.682;2022-12-15T07:32:54;11.50;;;5.85;;
41115;SDS011;26861;51.824;4.682;2022-12-15T07:35:20;7.20;;;5.47;;
41115;SDS011;26861;51.824;4.682;2022-12-15T07:37:46;9.18;;;5.50;;
41115;SDS011;26861;51.824;4.682;2022-12-15T07:40:11;8.20;;;5.32;;
41115;SDS011;26861;51.824;4.682;2022-12-15T07:42:37;7.78;;;4.97;;
41115;SDS011;26861;51.824;4.682;2022-12-15T07:45:03;7.25;;;5.13;;
41115;SDS011;26861;51.824;4.682;2022-12-15T07:47:30;6.47;;;4.60;;
41115;SDS011;26861;51.824;4.682;2022-12-15T07:49:56;7.07;;;4.22;;
41115;SDS011;26861;51.824;4.682;2022-12-15T07:52:22;8.38;;;4.55;;
41115;SDS011;26861;51.824;4.682;2022-12-15T07:54:48;6.10;;;4.10;;
41115;SDS011;26861;51.824;4.682;2022-12-15T07:57:13;5.93;;;4.95;;
41115;SDS011;26861;51.824;4.682;2022-12-15T07:59:40;6.97;;;4.32;;
41115;SDS011;26861;51.824;4.682;2022-12-15T08:02:06;7.65;;;4.80;;
41115;SDS011;26861;51.824;4.682;2022-12-15T08:04:34;5.63;;;4.35;;
41115;SDS011;26861;51.824;4.682;2022-12-15T08:06:59;8.20;;;4.75;;
41115;SDS011;26861;51.824;4.682;2022-12-15T08:09:25;8.75;;;4.57;;
41115;SDS011;26861;51.824;4.682;2022-12-15T08:11:51;6.53;;;4.50;;
41115;SDS011;26861;51.824;4.682;2022-12-15T08:14:16;6.68;;;4.53;;
41115;SDS011;26861;51.824;4.682;2022-12-15T08:16:42;6.63;;;5.03;;
41115;SDS011;26861;51.824;4.682;2022-12-15T08:19:12;6.07;;;4.55;;
41115;SDS011;26861;51.824;4.682;2022-12-15T08:21:39;8.57;;;4.93;;
41115;SDS011;26861;51.824;4.682;2022-12-15T08:24:06;6.45;;;4.72;;
41115;SDS011;26861;51.824;4.682;2022-12-15T08:26:33;7.90;;;4.72;;
41115;SDS011;26861;51.824;4.682;2022-12-15T08:29:00;7.30;;;4.82;;
41115;SDS011;26861;51.824;4.682;2022-12-15T08:31:27;8.10;;;5.03;;
41115;SDS011;26861;51.824;4.682;2022-12-15T08:33:56;6.57;;;5.07;;
41115;SDS011;26861;51.824;4.682;2022-12-15T08:36:22;5.80;;;4.40;;
41115;SDS011;26861;51.824;4.682;2022-12-15T08:38:47;5.90;;;4.22;;
41115;SDS011;26861;51.824;4.682;2022-12-15T08:41:14;5.90;;;4.40;;
41115;SDS011;26861;51.824;4.682;2022-12-15T08:43:43;9.07;;;5.03;;
41115;SDS011;26861;51.824;4.682;2022-12-15T08:46:09;7.05;;;4.70;;
41115;SDS011;26861;51.824;4.682;2022-12-15T08:48:36;7.53;;;4.82;;
41115;SDS011;26861;51.824;4.682;2022-12-15T08:51:02;7.13;;;4.70;;
41115;SDS011;26861;51.824;4.682;2022-12-15T08:53:28;5.90;;;4.85;;
41115;SDS011;26861;51.824;4.682;2022-12-15T08:55:54;7.63;;;5.00;;
41115;SDS011;26861;51.824;4.682;2022-12-15T08:58:19;6.55;;;4.70;;
41115;SDS011;26861;51.824;4.682;2022-12-15T09:00:45;8.43;;;5.10;;
41115;SDS011;26861;51.824;4.682;2022-12-15T09:03:11;9.52;;;5.30;;
41115;SDS011;26861;51.824;4.682;2022-12-15T09:05:37;7.78;;;5.03;;
41115;SDS011;26861;51.824;4.682;2022-12-15T09:08:03;6.88;;;4.50;;
41115;SDS011;26861;51.824;4.682;2022-12-15T09:10:29;6.45;;;4.50;;
41115;SDS011;26861;51.824;4.682;2022-12-15T09:12:55;6.85;;;5.22;;
41115;SDS011;26861;51.824;4.682;2022-12-15T09:15:21;9.05;;;5.30;;
41115;SDS011;26861;51.824;4.682;2022-12-15T09:17:46;6.68;;;5.40;;
41115;SDS011;26861;51.824;4.682;2022-12-15T09:20:13;6.72;;;4.88;;
41115;SDS011;26861;51.824;4.682;2022-12-15T09:22:39;8.80;;;5.53;;
41115;SDS011;26861;51.824;4.682;2022-12-15T09:25:07;7.95;;;5.43;;
41115;SDS011;26861;51.824;4.682;2022-12-15T09:27:33;7.22;;;5.18;;
41115;SDS011;26861;51.824;4.682;2022-12-15T09:30:00;9.13;;;5.88;;
41115;SDS011;26861;51.824;4.682;2022-12-15T09:32:26;8.63;;;6.05;;
41115;SDS011;26861;51.824;4.682;2022-12-15T09:34:52;8.63;;;6.32;;
41115;SDS011;26861;51.824;4.682;2022-12-15T09:37:18;9.02;;;6.50;;
41115;SDS011;26861;51.824;4.682;2022-12-15T09:39:44;9.63;;;6.45;;
41115;SDS011;26861;51.824;4.682;2022-12-15T09:44:50;8.40;;;6.37;;
41115;SDS011;26861;51.824;4.682;2022-12-15T09:47:27;7.32;;;5.85;;
41115;SDS011;26861;51.824;4.682;2022-12-15T09:50:08;8.18;;;5.60;;
41115;SDS011;26861;51.824;4.682;2022-12-15T09:52:49;8.98;;;5.93;;
41115;SDS011;26861;51.824;4.682;2022-12-15T09:55:21;8.43;;;5.55;;
41115;SDS011;26861;51.824;4.682;2022-12-15T09:57:59;8.40;;;5.75;;
41115;SDS011;26861;51.824;4.682;2022-12-15T10:00:45;7.30;;;5.43;;
41115;SDS011;26861;51.824;4.682;2022-12-15T10:06:20;7.72;;;5.70;;
41115;SDS011;26861;51.824;4.682;2022-12-15T10:14:03;8.40;;;5.20;;
41115;SDS011;26861;51.824;4.682;2022-12-15T10:19:30;8.00;;;5.53;;
41115;SDS011;26861;51.824;4.682;2022-12-15T10:22:03;7.75;;;5.65;;
41115;SDS011;26861;51.824;4.682;2022-12-15T10:24:30;8.48;;;6.13;;
41115;SDS011;26861;51.824;4.682;2022-12-15T10:27:12;8.48;;;5.88;;
41115;SDS011;26861;51.824;4.682;2022-12-15T10:29:46;8.20;;;5.68;;
41115;SDS011;26861;51.824;4.682;2022-12-15T10:32:29;8.90;;;5.95;;
41115;SDS011;26861;51.824;4.682;2022-12-15T10:35:06;10.68;;;5.90;;
41115;SDS011;26861;51.824;4.682;2022-12-15T10:37:55;8.07;;;5.40;;
41115;SDS011;26861;51.824;4.682;2022-12-15T10:43:13;9.18;;;5.88;;
41115;SDS011;26861;51.824;4.682;2022-12-15T10:45:47;7.90;;;5.85;;
41115;SDS011;26861;51.824;4.682;2022-12-15T10:48:18;8.55;;;6.50;;
41115;SDS011;26861;51.824;4.682;2022-12-15T10:50:44;8.23;;;5.75;;
41115;SDS011;26861;51.824;4.682;2022-12-15T10:53:30;9.52;;;6.30;;
41115;SDS011;26861;51.824;4.682;2022-12-15T10:56:03;7.00;;;5.68;;
41115;SDS011;26861;51.824;4.682;2022-12-15T10:58:30;8.38;;;6.00;;
41115;SDS011;26861;51.824;4.682;2022-12-15T11:01:06;7.82;;;5.80;;
41115;SDS011;26861;51.824;4.682;2022-12-15T11:03:38;6.93;;;5.50;;
41115;SDS011;26861;51.824;4.682;2022-12-15T11:06:09;10.60;;;6.28;;
41115;SDS011;26861;51.824;4.682;2022-12-15T11:08:42;8.23;;;5.75;;
41115;SDS011;26861;51.824;4.682;2022-12-15T11:11:44;7.85;;;5.63;;
41115;SDS011;26861;51.824;4.682;2022-12-15T11:14:40;8.02;;;6.00;;
41115;SDS011;26861;51.824;4.682;2022-12-15T11:17:12;7.07;;;5.70;;
41115;SDS011;26861;51.824;4.682;2022-12-15T11:19:56;7.93;;;5.70;;
41115;SDS011;26861;51.824;4.682;2022-12-15T11:22:45;8.43;;;6.07;;
41115;SDS011;26861;51.824;4.682;2022-12-15T11:28:09;9.70;;;5.90;;
41115;SDS011;26861;51.824;4.682;2022-12-15T11:30:44;6.78;;;5.30;;
41115;SDS011;26861;51.824;4.682;2022-12-15T11:33:16;7.45;;;6.20;;
41115;SDS011;26861;51.824;4.682;2022-12-15T11:38:50;8.38;;;5.40;;
41115;SDS011;26861;51.824;4.682;2022-12-15T11:44:05;7.70;;;5.70;;
41115;SDS011;26861;51.824;4.682;2022-12-15T12:00:27;7.10;;;5.38;;
41115;SDS011;26861;51.824;4.682;2022-12-15T12:03:18;8.98;;;5.47;;
41115;SDS011;26861;51.824;4.682;2022-12-15T12:05:57;6.65;;;5.20;;
41115;SDS011;26861;51.824;4.682;2022-12-15T12:08:44;6.25;;;5.32;;
41115;SDS011;26861;51.824;4.682;2022-12-15T12:11:22;7.38;;;5.88;;
41115;SDS011;26861;51.824;4.682;2022-12-15T12:20:10;5.38;;;4.85;;
41115;SDS011;26861;51.824;4.682;2022-12-15T12:22:41;9.60;;;5.30;;
41115;SDS011;26861;51.824;4.682;2022-12-15T12:25:21;7.47;;;5.53;;
41115;SDS011;26861;51.824;4.682;2022-12-15T12:30:43;6.30;;;4.95;;
41115;SDS011;26861;51.824;4.682;2022-12-15T12:35:47;6.20;;;5.28;;
41115;SDS011;26861;51.824;4.682;2022-12-15T12:38:21;7.75;;;5.28;;
41115;SDS011;26861;51.824;4.682;2022-12-15T12:43:32;7.20;;;4.40;;
41115;SDS011;26861;51.824;4.682;2022-12-15T12:49:05;8.35;;;5.35;;
41115;SDS011;26861;51.824;4.682;2022-12-15T12:51:35;6.38;;;5.00;;
41115;SDS011;26861;51.824;4.682;2022-12-15T12:57:02;7.65;;;4.63;;
41115;SDS011;26861;51.824;4.682;2022-12-15T12:59:59;5.38;;;3.78;;
41115;SDS011;26861;51.824;4.682;2022-12-15T13:07:53;6.40;;;4.43;;
41115;SDS011;26861;51.824;4.682;2022-12-15T13:10:21;6.97;;;4.50;;
41115;SDS011;26861;51.824;4.682;2022-12-15T13:12:49;5.82;;;4.45;;
41115;SDS011;26861;51.824;4.682;2022-12-15T13:17:53;5.75;;;4.53;;
41115;SDS011;26861;51.824;4.682;2022-12-15T13:20:25;5.35;;;4.60;;
41115;SDS011;26861;51.824;4.682;2022-12-15T13:22:53;6.53;;;5.00;;
41115;SDS011;26861;51.824;4.682;2022-12-15T13:25:30;5.22;;;4.60;;
41115;SDS011;26861;51.824;4.682;2022-12-15T13:28:00;5.65;;;4.97;;
41115;SDS011;26861;51.824;4.682;2022-12-15T13:33:23;7.05;;;4.80;;
41115;SDS011;26861;51.824;4.682;2022-12-15T13:35:50;6.45;;;4.68;;
41115;SDS011;26861;51.824;4.682;2022-12-15T13:38:17;6.60;;;4.78;;
41115;SDS011;26861;51.824;4.682;2022-12-15T13:43:09;6.70;;;4.80;;
41115;SDS011;26861;51.824;4.682;2022-12-15T13:46:17;6.68;;;5.10;;
41115;SDS011;26861;51.824;4.682;2022-12-15T13:48:50;6.53;;;4.63;;
41115;SDS011;26861;51.824;4.682;2022-12-15T13:51:33;6.32;;;4.82;;
41115;SDS011;26861;51.824;4.682;2022-12-15T13:54:19;6.88;;;4.53;;
41115;SDS011;26861;51.824;4.682;2022-12-15T14:01:53;4.95;;;3.90;;
41115;SDS011;26861;51.824;4.682;2022-12-15T14:04:19;4.85;;;3.90;;
41115;SDS011;26861;51.824;4.682;2022-12-15T14:09:13;5.25;;;4.38;;
41115;SDS011;26861;51.824;4.682;2022-12-15T14:11:43;5.90;;;4.43;;
41115;SDS011;26861;51.824;4.682;2022-12-15T14:14:17;4.97;;;4.45;;
41115;SDS011;26861;51.824;4.682;2022-12-15T14:16:53;5.45;;;4.28;;
41115;SDS011;26861;51.824;4.682;2022-12-15T14:19:22;5.22;;;4.13;;
41115;SDS011;26861;51.824;4.682;2022-12-15T14:24:20;6.18;;;4.25;;
41115;SDS011;26861;51.824;4.682;2022-12-15T14:26:46;7.43;;;6.15;;
41115;SDS011;26861;51.824;4.682;2022-12-15T14:29:12;6.03;;;4.15;;
41115;SDS011;26861;51.824;4.682;2022-12-15T14:31:38;5.32;;;4.80;;
41115;SDS011;26861;51.824;4.682;2022-12-15T14:36:38;6.97;;;5.00;;
41115;SDS011;26861;51.824;4.682;2022-12-15T14:39:05;4.53;;;4.10;;
41115;SDS011;26861;51.824;4.682;2022-12-15T14:41:38;5.68;;;4.57;;
41115;SDS011;26861;51.824;4.682;2022-12-15T14:46:54;6.45;;;4.47;;
41115;SDS011;26861;51.824;4.682;2022-12-15T14:49:21;5.25;;;4.07;;
41115;SDS011;26861;51.824;4.682;2022-12-15T14:51:51;4.88;;;3.70;;
41115;SDS011;26861;51.824;4.682;2022-12-15T14:54:26;4.50;;;3.97;;
41115;SDS011;26861;51.824;4.682;2022-12-15T14:56:57;4.63;;;3.63;;
41115;SDS011;26861;51.824;4.682;2022-12-15T14:59:28;4.93;;;3.70;;
41115;SDS011;26861;51.824;4.682;2022-12-15T15:01:58;5.20;;;3.78;;
41115;SDS011;26861;51.824;4.682;2022-12-15T15:04:54;5.05;;;3.85;;
41115;SDS011;26861;51.824;4.682;2022-12-15T15:07:20;4.57;;;3.60;;
41115;SDS011;26861;51.824;4.682;2022-12-15T15:09:47;4.22;;;3.35;;
41115;SDS011;26861;51.824;4.682;2022-12-15T15:12:21;4.78;;;4.13;;
41115;SDS011;26861;51.824;4.682;2022-12-15T15:14:50;4.55;;;3.80;;
41115;SDS011;26861;51.824;4.682;2022-12-15T15:17:33;6.22;;;4.00;;
41115;SDS011;26861;51.824;4.682;2022-12-15T15:20:15;4.88;;;3.75;;
41115;SDS011;26861;51.824;4.682;2022-12-15T15:22:46;5.03;;;3.65;;
41115;SDS011;26861;51.824;4.682;2022-12-15T15:30:43;5.90;;;4.03;;
41115;SDS011;26861;51.824;4.682;2022-12-15T15:33:10;6.38;;;4.07;;
41115;SDS011;26861;51.824;4.682;2022-12-15T15:35:37;6.18;;;4.05;;
41115;SDS011;26861;51.824;4.682;2022-12-15T15:40:50;5.88;;;4.00;;
41115;SDS011;26861;51.824;4.682;2022-12-15T15:43:16;6.38;;;3.90;;
41115;SDS011;26861;51.824;4.682;2022-12-15T15:45:43;6.07;;;4.32;;
41115;SDS011;26861;51.824;4.682;2022-12-15T15:48:12;6.22;;;4.10;;
41115;SDS011;26861;51.824;4.682;2022-12-15T15:50:42;5.90;;;3.85;;
41115;SDS011;26861;51.824;4.682;2022-12-15T15:53:14;5.68;;;3.85;;
41115;SDS011;26861;51.824;4.682;2022-12-15T15:55:42;5.05;;;3.88;;
41115;SDS011;26861;51.824;4.682;2022-12-15T15:58:11;6.43;;;4.22;;
41115;SDS011;26861;51.824;4.682;2022-12-15T16:00:37;5.85;;;4.60;;
41115;SDS011;26861;51.824;4.682;2022-12-15T16:03:04;9.15;;;5.50;;
41115;SDS011;26861;51.824;4.682;2022-12-15T16:05:30;7.50;;;5.55;;
41115;SDS011;26861;51.824;4.682;2022-12-15T16:07:55;8.32;;;5.80;;
41115;SDS011;26861;51.824;4.682;2022-12-15T16:10:22;7.30;;;5.65;;
41115;SDS011;26861;51.824;4.682;2022-12-15T16:12:49;9.30;;;5.72;;
41115;SDS011;26861;51.824;4.682;2022-12-15T16:15:21;10.80;;;5.93;;
41115;SDS011;26861;51.824;4.682;2022-12-15T16:17:49;7.90;;;5.40;;
41115;SDS011;26861;51.824;4.682;2022-12-15T16:20:16;9.68;;;6.25;;
41115;SDS011;26861;51.824;4.682;2022-12-15T16:22:45;8.00;;;6.10;;
41115;SDS011;26861;51.824;4.682;2022-12-15T16:25:22;8.80;;;6.53;;
41115;SDS011;26861;51.824;4.682;2022-12-15T16:28:02;10.25;;;6.30;;
41115;SDS011;26861;51.824;4.682;2022-12-15T16:30:34;7.93;;;6.50;;
41115;SDS011;26861;51.824;4.682;2022-12-15T16:33:00;11.57;;;6.90;;
41115;SDS011;26861;51.824;4.682;2022-12-15T16:35:26;10.80;;;7.35;;
41115;SDS011;26861;51.824;4.682;2022-12-15T16:37:51;11.70;;;7.22;;
41115;SDS011;26861;51.824;4.682;2022-12-15T16:40:19;9.30;;;6.88;;
41115;SDS011;26861;51.824;4.682;2022-12-15T16:42:51;9.45;;;7.22;;
41115;SDS011;26861;51.824;4.682;2022-12-15T16:45:18;12.52;;;7.45;;
41115;SDS011;26861;51.824;4.682;2022-12-15T16:47:45;9.98;;;6.60;;
41115;SDS011;26861;51.824;4.682;2022-12-15T16:50:12;11.35;;;7.15;;
41115;SDS011;26861;51.824;4.682;2022-12-15T16:52:39;9.18;;;6.70;;
41115;SDS011;26861;51.824;4.682;2022-12-15T16:55:08;11.68;;;6.63;;
41115;SDS011;26861;51.824;4.682;2022-12-15T16:57:43;10.18;;;6.47;;
41115;SDS011;26861;51.824;4.682;2022-12-15T17:00:14;11.82;;;7.15;;
41115;SDS011;26861;51.824;4.682;2022-12-15T17:02:41;10.40;;;6.22;;
41115;SDS011;26861;51.824;4.682;2022-12-15T17:05:07;10.20;;;6.93;;
41115;SDS011;26861;51.824;4.682;2022-12-15T17:07:33;15.02;;;6.68;;
41115;SDS011;26861;51.824;4.682;2022-12-15T17:09:59;10.55;;;7.15;;
41115;SDS011;26861;51.824;4.682;2022-12-15T17:12:24;10.85;;;7.70;;
41115;SDS011;26861;51.824;4.682;2022-12-15T17:14:50;10.23;;;6.97;;
41115;SDS011;26861;51.824;4.682;2022-12-15T17:17:17;11.68;;;7.45;;
41115;SDS011;26861;51.824;4.682;2022-12-15T17:19:43;11.73;;;7.30;;
41115;SDS011;26861;51.824;4.682;2022-12-15T17:22:13;10.90;;;7.15;;
41115;SDS011;26861;51.824;4.682;2022-12-15T17:24:40;14.32;;;7.63;;